createdAt,value
2022-08-05T04:00:32.209Z,994.83
2022-08-05T04:05:33.857Z,994.91
2022-08-05T04:10:37.549Z,994.87
2022-08-05T04:16:43.596Z,994.70
2022-08-05T04:22:09.783Z,994.60
2022-08-05T04:26:44.499Z,994.48
2022-08-05T04:31:43.440Z,994.12
2022-08-05T04:36:46.054Z,994.15
2022-08-05T04:41:44.415Z,994.35
2022-08-05T04:46:43.276Z,994.81
2022-08-05T04:51:43.290Z,994.44
2022-08-05T04:56:43.531Z,994.76
2022-08-05T05:02:06.744Z,994.82
2022-08-05T05:06:44.913Z,994.97
2022-08-05T05:11:55.719Z,994.92
2022-08-05T05:16:43.959Z,994.89
2022-08-05T05:21:42.888Z,994.81
2022-08-05T05:26:42.840Z,994.86
2022-08-05T05:31:42.779Z,994.88
2022-08-05T05:36:42.721Z,994.92
2022-08-05T05:41:42.678Z,995.07
2022-08-05T05:46:42.600Z,995.07
2022-08-05T05:51:49.586Z,995.10
2022-08-05T05:56:43.559Z,995.00
2022-08-05T06:01:57.374Z,995.17
2022-08-05T06:06:47.377Z,995.06
2022-08-05T06:11:48.828Z,995.06
2022-08-05T06:16:43.286Z,995.06
2022-08-05T06:21:49.746Z,995.22
2022-08-05T06:26:51.309Z,995.23
2022-08-05T06:31:43.114Z,995.38
2022-08-05T06:36:57.107Z,995.51
2022-08-05T06:41:43.007Z,995.53
2022-08-05T06:46:41.954Z,995.57
2022-08-05T06:51:41.894Z,995.66
2022-08-05T06:56:41.845Z,995.54
2022-08-05T07:01:42.825Z,995.55
2022-08-05T07:06:41.737Z,995.59
2022-08-05T07:11:42.523Z,995.59
2022-08-05T07:17:57.311Z,995.61
2022-08-05T07:22:00.642Z,995.71
2022-08-05T07:26:42.510Z,995.76
2022-08-05T07:31:54.787Z,996.06
2022-08-05T07:36:42.398Z,996.05
2022-08-05T07:42:13.615Z,996.16
2022-08-05T07:46:48.210Z,996.11
2022-08-05T07:51:53.452Z,996.13
2022-08-05T07:57:02.613Z,996.14
2022-08-05T08:01:52.263Z,996.33
2022-08-05T08:06:42.075Z,996.36
2022-08-05T08:11:47.774Z,996.50
2022-08-05T08:16:50.778Z,996.56
2022-08-05T08:21:41.902Z,996.63
2022-08-05T08:26:41.368Z,996.64
2022-08-05T08:31:41.389Z,996.75
2022-08-05T08:36:49.103Z,996.80
2022-08-05T08:41:52.593Z,996.94
2022-08-05T08:46:41.641Z,996.99
2022-08-05T08:52:04.359Z,997.07
2022-08-05T08:56:47.444Z,997.00
2022-08-05T09:01:42.698Z,997.15
2022-08-05T09:06:40.404Z,997.17
2022-08-05T09:11:53.649Z,997.45
2022-08-05T09:16:41.293Z,997.56
2022-08-05T09:22:21.888Z,997.59
2022-08-05T09:26:41.181Z,997.62
2022-08-05T09:32:42.167Z,997.63
2022-08-05T09:36:54.742Z,997.73
2022-08-05T09:41:41.019Z,997.86
2022-08-05T09:46:39.969Z,997.78
2022-08-05T09:51:41.001Z,997.90
2022-08-05T09:56:39.856Z,997.96
2022-08-05T10:01:40.799Z,997.95
2022-08-05T10:06:39.747Z,997.92
2022-08-05T10:11:39.686Z,998.09
2022-08-05T10:16:52.243Z,998.24
2022-08-05T10:21:41.201Z,998.35
2022-08-05T10:26:52.047Z,998.56
2022-08-05T10:32:52.970Z,998.49
2022-08-05T10:36:40.413Z,998.63
2022-08-05T10:41:45.172Z,998.71
2022-08-05T10:46:40.307Z,998.79
2022-08-05T10:51:48.522Z,998.92
2022-08-05T10:56:40.191Z,998.99
2022-08-05T11:01:54.026Z,999.14
2022-08-05T11:06:40.084Z,999.12
2022-08-05T11:11:44.403Z,999.20
2022-08-05T11:16:47.675Z,999.26
2022-08-05T11:21:48.717Z,999.46
2022-08-05T11:26:40.429Z,999.43
2022-08-05T11:31:58.825Z,999.43
2022-08-05T11:36:40.494Z,999.56
2022-08-05T11:42:01.477Z,999.37
2022-08-05T11:47:09.634Z,999.36
2022-08-05T11:51:49.186Z,999.35
2022-08-05T11:56:41.019Z,999.26
2022-08-05T12:01:38.490Z,999.34
2022-08-05T12:06:38.443Z,999.38
2022-08-05T12:11:40.259Z,999.40
2022-08-05T12:16:38.755Z,999.51
2022-08-05T12:21:39.096Z,999.45
2022-08-05T12:26:38.231Z,999.55
2022-08-05T12:31:45.962Z,999.52
2022-08-05T12:36:39.216Z,999.62
2022-08-05T12:41:43.604Z,999.56
2022-08-05T12:46:39.014Z,999.65
2022-08-05T12:52:13.716Z,999.65
2022-08-05T12:56:38.906Z,999.79
2022-08-05T13:02:01.385Z,999.80
2022-08-05T13:06:38.793Z,999.88
2022-08-05T13:12:02.667Z,999.94
2022-08-05T13:16:38.690Z,999.93
2022-08-05T13:21:48.260Z,999.97
2022-08-05T13:26:38.575Z,1000.00
2022-08-05T13:32:03.924Z,999.98
2022-08-05T13:36:38.460Z,1000.07
2022-08-05T13:41:37.825Z,1000.07
2022-08-05T13:46:37.975Z,1000.16
2022-08-05T13:51:41.108Z,1000.21
2022-08-05T13:56:37.251Z,1000.39
2022-08-05T14:01:46.469Z,1000.33
2022-08-05T14:06:38.138Z,1000.40
2022-08-05T14:12:00.623Z,1000.33
2022-08-05T14:16:38.034Z,1000.39
2022-08-05T14:22:10.278Z,1000.37
2022-08-05T14:26:51.433Z,1000.47
2022-08-05T14:32:03.945Z,1000.60
2022-08-05T14:36:37.811Z,1000.57
2022-08-05T14:41:36.758Z,1000.43
2022-08-05T14:46:37.704Z,1000.52
2022-08-05T14:51:36.649Z,1000.52
2022-08-05T14:56:38.053Z,1000.57
2022-08-05T15:01:48.751Z,1000.55
2022-08-05T15:06:37.502Z,1000.62
2022-08-05T15:11:51.208Z,1000.51
2022-08-05T15:16:37.392Z,1000.45
2022-08-05T15:21:36.349Z,1000.55
2022-08-05T15:26:36.281Z,1000.58
2022-08-05T15:31:36.285Z,1000.64
2022-08-05T15:36:36.220Z,1000.68
2022-08-05T15:41:55.570Z,1000.69
2022-08-05T15:46:37.066Z,1000.74
2022-08-05T15:52:04.287Z,1000.70
2022-08-05T15:56:36.970Z,1000.63
2022-08-05T16:01:39.711Z,1000.68
2022-08-05T16:06:36.900Z,1000.66
2022-08-05T16:11:42.763Z,1000.76
2022-08-05T16:17:58.086Z,1000.78
2022-08-05T16:22:48.588Z,1000.68
2022-08-05T16:28:04.852Z,1000.83
2022-08-05T16:32:48.334Z,1000.87
2022-08-05T16:38:02.700Z,1000.89
2022-08-05T16:42:48.253Z,1000.97
2022-08-05T16:47:54.896Z,1001.05
2022-08-05T16:52:48.106Z,1001.17
2022-08-05T16:58:00.298Z,1001.22
2022-08-05T17:02:47.998Z,1001.28
2022-08-05T17:07:52.990Z,1001.24
2022-08-05T17:12:51.485Z,1001.42
2022-08-05T17:17:54.745Z,1001.41
2022-08-05T17:22:47.778Z,1001.40
2022-08-05T17:27:47.756Z,1001.41
2022-08-05T17:32:46.688Z,1001.46
2022-08-05T17:37:48.282Z,1001.54
2022-08-05T17:42:51.917Z,1001.57
2022-08-05T17:47:52.956Z,1001.69
2022-08-05T17:52:53.005Z,1001.58
2022-08-05T17:57:48.751Z,1001.74
2022-08-05T18:02:46.358Z,1001.87
2022-08-05T18:07:46.296Z,1001.86
2022-08-05T18:12:46.238Z,1001.89
2022-08-05T18:18:00.482Z,1001.96
2022-08-05T18:22:54.606Z,1001.99
2022-08-05T18:27:52.318Z,1002.07
2022-08-05T18:32:53.056Z,1002.17
2022-08-05T18:37:46.964Z,1002.35
2022-08-05T18:42:45.974Z,1002.40
2022-08-05T18:47:50.130Z,1002.35
2022-08-05T18:52:51.127Z,1002.43
2022-08-05T18:57:52.896Z,1002.51
2022-08-05T19:02:46.887Z,1002.56
2022-08-05T19:07:46.577Z,1002.60
2022-08-05T19:12:46.207Z,1002.62
2022-08-05T19:18:08.185Z,1002.70
2022-08-05T19:22:46.470Z,1002.77
2022-08-05T19:27:45.439Z,1002.86
2022-08-05T19:32:45.355Z,1002.91
2022-08-05T19:38:04.284Z,1003.04
2022-08-05T19:43:00.657Z,1003.13
2022-08-05T19:47:46.208Z,1003.32
2022-08-05T19:52:47.716Z,1003.45
2022-08-05T19:57:47.414Z,1003.45
2022-08-05T20:02:46.023Z,1003.62
2022-08-05T20:07:48.120Z,1003.67
2022-08-05T20:12:48.298Z,1003.77
2022-08-05T20:17:44.859Z,1003.78
2022-08-05T20:22:44.836Z,1003.79
2022-08-05T20:27:44.759Z,1003.83
2022-08-05T20:32:45.157Z,1003.91
2022-08-05T20:38:06.256Z,1004.03
2022-08-05T20:42:45.587Z,1004.11
2022-08-05T20:47:44.530Z,1004.18
2022-08-05T20:52:44.501Z,1004.27
2022-08-05T20:57:45.116Z,1004.41
2022-08-05T21:02:51.599Z,1004.36
2022-08-05T21:07:45.882Z,1004.37
2022-08-05T21:12:57.663Z,1004.31
2022-08-05T21:17:45.209Z,1004.44
2022-08-05T21:22:44.157Z,1004.44
2022-08-05T21:27:47.512Z,1004.52
2022-08-05T21:32:44.046Z,1004.42
2022-08-05T21:37:52.658Z,1004.60
2022-08-05T21:42:45.751Z,1004.65
2022-08-05T21:47:56.897Z,1004.70
2022-08-05T21:52:47.546Z,1004.65
2022-08-05T21:57:43.776Z,1004.70
2022-08-05T22:02:43.733Z,1004.78
2022-08-05T22:07:59.017Z,1004.82
2022-08-05T22:12:44.905Z,1004.87
2022-08-05T22:18:58.779Z,1004.98
2022-08-05T22:24:02.476Z,1004.92
2022-08-05T22:28:56.017Z,1004.98
2022-08-05T22:33:57.169Z,1005.04
2022-08-05T22:38:56.000Z,1005.04
2022-08-05T22:43:54.841Z,1005.03
2022-08-05T22:48:54.820Z,1005.07
2022-08-05T22:53:55.071Z,1005.24
2022-08-05T22:58:54.682Z,1005.15
2022-08-05T23:03:58.776Z,1005.24
2022-08-05T23:08:54.571Z,1005.39
2022-08-05T23:13:54.523Z,1005.52
2022-08-05T23:18:54.485Z,1005.45
2022-08-05T23:23:54.416Z,1005.50
2022-08-05T23:28:54.360Z,1005.59
